createdAt,value
2022-11-04T00:00:26.859Z,24.13
2022-11-04T00:02:57.233Z,29.90
2022-11-04T00:05:24.640Z,24.13
2022-11-04T00:08:09.663Z,23.42
2022-11-04T00:10:57.546Z,24.52
2022-11-04T00:13:24.954Z,26.35
2022-11-04T00:16:10.262Z,28.77
2022-11-04T00:18:37.651Z,25.60
2022-11-04T00:21:23.030Z,25.17
2022-11-04T00:24:07.836Z,27.70
2022-11-04T00:26:54.421Z,30.88
2022-11-04T00:29:21.809Z,30.45
2022-11-04T00:32:06.648Z,26.90
2022-11-04T00:34:34.138Z,27.13
2022-11-04T00:37:03.000Z,30.50
2022-11-04T00:39:30.813Z,27.25
2022-11-04T00:41:59.552Z,26.15
2022-11-04T00:44:26.943Z,26.92
2022-11-04T00:46:54.346Z,25.42
2022-11-04T00:49:21.740Z,28.27
2022-11-04T00:51:49.206Z,32.85
2022-11-04T00:54:16.591Z,32.90
2022-11-04T00:56:43.973Z,26.67
2022-11-04T00:59:14.598Z,23.45
2022-11-04T01:01:42.589Z,34.53
2022-11-04T01:04:10.498Z,26.80
2022-11-04T01:06:37.902Z,23.20
2022-11-04T01:09:08.135Z,31.17
2022-11-04T01:11:35.863Z,31.45
2022-11-04T01:14:03.272Z,29.92
2022-11-04T01:16:33.320Z,26.33
2022-11-04T01:19:01.103Z,32.38
2022-11-04T01:21:28.545Z,29.58
2022-11-04T01:23:55.959Z,30.90
2022-11-04T01:26:25.268Z,28.08
2022-11-04T01:28:54.636Z,30.42
2022-11-04T01:31:23.245Z,25.98
2022-11-04T01:33:53.039Z,28.15
2022-11-04T01:36:20.924Z,27.08
2022-11-04T01:38:48.722Z,29.73
2022-11-04T01:41:19.248Z,27.52
2022-11-04T01:43:50.064Z,26.23
2022-11-04T01:46:24.121Z,23.40
2022-11-04T01:48:53.214Z,28.75
2022-11-04T01:51:21.975Z,29.48
2022-11-04T01:53:52.258Z,28.88
2022-11-04T01:56:20.732Z,24.80
2022-11-04T01:58:50.756Z,33.25
2022-11-04T02:01:18.815Z,29.65
2022-11-04T02:03:50.033Z,28.42
2022-11-04T02:06:20.088Z,30.83
2022-11-04T02:08:47.728Z,30.77
2022-11-04T02:11:35.122Z,24.85
2022-11-04T02:14:01.803Z,31.45
2022-11-04T02:16:35.671Z,31.05
2022-11-04T02:21:54.420Z,27.15
2022-11-04T02:24:44.305Z,28.02
2022-11-04T02:27:21.530Z,27.17
2022-11-04T02:30:07.829Z,31.55
2022-11-04T02:32:43.833Z,30.10
2022-11-04T02:35:15.376Z,33.28
2022-11-04T02:37:48.495Z,27.00
2022-11-04T02:40:24.561Z,24.08
2022-11-04T02:42:57.680Z,27.02
2022-11-04T02:45:30.252Z,26.85
2022-11-04T02:48:03.477Z,35.85
2022-11-04T02:50:33.949Z,32.60
2022-11-04T02:53:06.460Z,29.67
2022-11-04T02:55:36.471Z,25.25
2022-11-04T02:58:06.735Z,34.65
2022-11-04T03:00:36.022Z,34.17
2022-11-04T03:03:09.308Z,27.88
2022-11-04T03:05:38.184Z,31.60
2022-11-04T03:08:15.531Z,41.88
2022-11-04T03:10:44.774Z,27.90
2022-11-04T03:13:14.462Z,34.03
2022-11-04T03:15:49.051Z,25.98
2022-11-04T03:18:21.086Z,31.45
2022-11-04T03:20:49.724Z,35.72
2022-11-04T03:23:17.406Z,24.02
2022-11-04T03:25:46.093Z,33.53
2022-11-04T03:28:24.959Z,29.55
2022-11-04T03:30:56.780Z,28.05
2022-11-04T03:33:28.396Z,30.05
2022-11-04T03:35:55.787Z,28.92
2022-11-04T03:38:23.324Z,27.52
2022-11-04T03:40:51.056Z,32.65
2022-11-04T03:43:21.817Z,28.58
2022-11-04T03:45:49.883Z,23.30
2022-11-04T03:48:18.704Z,24.42
2022-11-04T03:50:47.819Z,35.00
2022-11-04T03:53:18.104Z,34.63
2022-11-04T03:55:52.951Z,30.92
2022-11-04T03:58:28.300Z,32.25
2022-11-04T04:01:01.451Z,30.83
2022-11-04T04:03:34.990Z,30.70
2022-11-04T04:06:09.619Z,31.80
2022-11-04T04:08:39.840Z,30.00
2022-11-04T04:11:10.428Z,28.70
2022-11-04T04:13:42.498Z,31.00
2022-11-04T04:16:12.050Z,28.30
2022-11-04T04:18:43.427Z,36.85
2022-11-04T04:21:15.192Z,35.95
2022-11-04T04:24:00.501Z,32.95
2022-11-04T04:26:46.311Z,39.95
2022-11-04T04:29:13.939Z,52.53
2022-11-04T04:31:50.717Z,50.63
2022-11-04T04:34:20.737Z,35.83
2022-11-04T04:36:52.087Z,37.33
2022-11-04T04:39:40.651Z,59.83
2022-11-04T04:42:26.488Z,42.45
2022-11-04T04:45:04.135Z,38.75
2022-11-04T04:47:35.992Z,32.58
2022-11-04T04:50:05.458Z,43.58
2022-11-04T04:52:34.805Z,39.00
2022-11-04T04:55:02.274Z,33.03
2022-11-04T04:57:29.739Z,36.42
2022-11-04T04:59:57.138Z,30.52
2022-11-04T05:02:24.611Z,32.92
2022-11-04T05:04:52.092Z,29.50
2022-11-04T05:07:20.807Z,31.02
2022-11-04T05:09:48.211Z,36.83
2022-11-04T05:12:15.614Z,28.05
2022-11-04T05:14:42.998Z,34.08
2022-11-04T05:17:10.418Z,36.58
2022-11-04T05:19:37.803Z,36.17
2022-11-04T05:22:05.572Z,33.05
2022-11-04T05:24:34.299Z,35.25
2022-11-04T05:27:01.719Z,33.10
2022-11-04T05:29:29.101Z,33.40
2022-11-04T05:31:56.503Z,31.75
2022-11-04T05:34:23.942Z,34.13
2022-11-04T05:36:51.329Z,37.85
2022-11-04T05:39:18.743Z,35.88
2022-11-04T05:41:47.447Z,37.17
2022-11-04T05:44:15.764Z,37.20
2022-11-04T05:46:43.489Z,38.17
2022-11-04T05:49:11.004Z,40.97
2022-11-04T05:51:38.409Z,35.65
2022-11-04T05:54:05.840Z,41.10
2022-11-04T05:56:33.168Z,33.58
2022-11-04T05:59:01.905Z,34.33
2022-11-04T06:01:33.930Z,41.17
2022-11-04T06:04:02.004Z,29.88
2022-11-04T06:06:31.085Z,31.55
2022-11-04T06:08:58.751Z,31.70
2022-11-04T06:11:27.323Z,36.03
2022-11-04T06:13:55.327Z,41.05
2022-11-04T06:16:24.390Z,37.05
2022-11-04T06:18:52.045Z,42.65
2022-11-04T06:21:26.071Z,42.20
2022-11-04T06:23:54.384Z,47.67
2022-11-04T06:26:26.868Z,38.75
2022-11-04T06:28:55.474Z,41.80
2022-11-04T06:31:24.389Z,33.15
2022-11-04T06:33:51.859Z,36.38
2022-11-04T06:36:19.321Z,37.28
2022-11-04T06:38:46.715Z,34.95
2022-11-04T06:41:15.854Z,35.55
2022-11-04T06:43:43.343Z,34.00
2022-11-04T06:46:27.310Z,35.42
2022-11-04T06:48:54.725Z,37.17
2022-11-04T06:51:22.120Z,37.28
2022-11-04T06:53:49.520Z,38.00
2022-11-04T06:56:17.020Z,33.25
2022-11-04T06:58:44.540Z,32.95
2022-11-04T07:01:16.053Z,35.50
2022-11-04T07:03:49.893Z,39.08
2022-11-04T07:06:17.304Z,36.63
2022-11-04T07:08:44.845Z,42.08
2022-11-04T07:11:12.498Z,29.77
2022-11-04T07:13:40.777Z,39.58
2022-11-04T07:16:08.879Z,36.10
2022-11-04T07:18:36.441Z,36.95
2022-11-04T07:21:09.920Z,40.92
2022-11-04T07:23:37.948Z,38.47
2022-11-04T07:26:07.781Z,36.15
2022-11-04T07:28:35.950Z,37.67
2022-11-04T07:31:05.224Z,37.88
2022-11-04T07:33:33.776Z,48.75
2022-11-04T07:36:05.980Z,45.70
2022-11-04T07:38:33.554Z,48.25
2022-11-04T07:41:02.457Z,42.25
2022-11-04T07:43:30.333Z,41.92
2022-11-04T07:46:02.305Z,35.60
2022-11-04T07:48:30.404Z,38.63
2022-11-04T07:50:58.851Z,37.13
2022-11-04T07:53:28.123Z,38.58
2022-11-04T07:55:55.508Z,51.03
2022-11-04T07:58:23.927Z,35.75
2022-11-04T08:00:51.426Z,37.10
2022-11-04T08:03:18.954Z,37.67
2022-11-04T08:05:46.405Z,30.92
2022-11-04T08:08:14.229Z,35.65
2022-11-04T08:10:42.939Z,34.75
2022-11-04T08:13:10.791Z,39.47
2022-11-04T08:15:38.533Z,39.67
2022-11-04T08:18:06.188Z,32.30
2022-11-04T08:20:33.562Z,35.88
2022-11-04T08:23:00.987Z,36.10
2022-11-04T08:25:28.402Z,30.30
2022-11-04T08:28:00.866Z,32.60
2022-11-04T08:30:28.796Z,30.10
2022-11-04T08:32:56.187Z,31.48
2022-11-04T08:35:23.701Z,33.33
2022-11-04T08:37:51.101Z,34.70
2022-11-04T08:40:18.489Z,33.25
2022-11-04T08:42:45.915Z,36.88
2022-11-04T08:45:14.725Z,34.58
2022-11-04T08:47:42.174Z,30.58
2022-11-04T08:50:11.431Z,30.05
2022-11-04T08:52:38.836Z,29.50
2022-11-04T08:55:06.937Z,35.15
2022-11-04T08:57:34.337Z,32.00
2022-11-04T09:00:01.734Z,30.80
2022-11-04T09:02:30.488Z,33.97
2022-11-04T09:04:57.891Z,31.80
2022-11-04T09:07:25.296Z,28.95
2022-11-04T09:09:52.724Z,29.58
2022-11-04T09:12:20.424Z,30.85
2022-11-04T09:14:47.834Z,26.27
2022-11-04T09:17:15.281Z,32.05
2022-11-04T09:19:44.034Z,28.38
2022-11-04T09:22:11.481Z,26.05
2022-11-04T09:24:38.901Z,25.52
2022-11-04T09:27:06.538Z,23.83
2022-11-04T09:29:34.224Z,22.73
2022-11-04T09:32:01.812Z,23.50
2022-11-04T09:34:29.307Z,23.45
2022-11-04T09:36:58.694Z,22.85
2022-11-04T09:39:26.268Z,22.83
2022-11-04T09:42:18.407Z,26.02
2022-11-04T09:45:19.379Z,27.27
2022-11-04T09:47:38.759Z,21.45
2022-11-04T09:50:11.287Z,20.75
2022-11-04T09:52:42.559Z,19.50
2022-11-04T09:55:16.278Z,23.13
2022-11-04T09:57:43.773Z,24.65
2022-11-04T10:00:16.108Z,18.02
2022-11-04T10:03:10.788Z,18.65
2022-11-04T10:05:48.613Z,17.95
2022-11-04T10:08:41.397Z,16.45
2022-11-04T10:11:14.393Z,12.82
2022-11-04T10:13:54.001Z,15.40
2022-11-04T10:16:34.107Z,20.45
2022-11-04T10:19:21.747Z,18.40
2022-11-04T10:21:59.482Z,18.48
2022-11-04T10:24:39.065Z,16.73
2022-11-04T10:27:12.270Z,27.30
2022-11-04T10:29:44.044Z,17.38
2022-11-04T10:32:21.921Z,17.00
2022-11-04T10:34:55.035Z,14.18
2022-11-04T10:37:22.433Z,16.73
2022-11-04T10:39:51.332Z,15.70
2022-11-04T10:42:21.423Z,14.52
2022-11-04T10:44:50.377Z,17.73
2022-11-04T10:47:29.275Z,16.02
2022-11-04T10:52:50.854Z,17.75
2022-11-04T10:55:29.538Z,15.68
2022-11-04T10:57:58.461Z,19.17
2022-11-04T11:00:37.123Z,17.73
2022-11-04T11:03:05.335Z,18.20
2022-11-04T11:05:32.854Z,14.60
2022-11-04T11:08:00.635Z,18.00
2022-11-04T11:10:31.024Z,20.38
2022-11-04T11:13:02.060Z,19.08
2022-11-04T11:15:32.663Z,15.38
2022-11-04T11:18:16.929Z,14.63
2022-11-04T11:20:49.342Z,17.80
2022-11-04T11:23:42.377Z,18.58
2022-11-04T11:26:14.577Z,15.90
2022-11-04T11:28:42.780Z,19.65
2022-11-04T11:31:16.247Z,17.98
2022-11-04T11:33:49.930Z,16.42
2022-11-04T11:36:20.357Z,17.83
2022-11-04T11:38:57.207Z,17.17
2022-11-04T11:41:31.425Z,15.73
2022-11-04T11:44:01.896Z,16.80
2022-11-04T11:46:31.419Z,17.45
2022-11-04T11:49:01.340Z,17.83
2022-11-04T11:51:32.721Z,18.73
2022-11-04T11:54:18.095Z,22.45
2022-11-04T11:57:12.658Z,20.52
2022-11-04T12:02:44.397Z,19.15
2022-11-04T12:11:00.038Z,21.52
2022-11-04T12:13:31.461Z,17.65
2022-11-04T12:16:17.091Z,16.80
2022-11-04T12:18:54.241Z,19.13
2022-11-04T12:21:26.899Z,18.98
2022-11-04T12:23:56.818Z,17.20
2022-11-04T12:26:31.386Z,19.98
2022-11-04T12:29:06.967Z,18.45
2022-11-04T12:31:43.289Z,20.35
2022-11-04T12:34:15.574Z,19.98
2022-11-04T12:36:54.089Z,19.60
2022-11-04T12:39:34.981Z,20.85
2022-11-04T12:42:20.951Z,17.75
2022-11-04T12:44:56.654Z,25.77
2022-11-04T12:47:34.056Z,24.63
2022-11-04T12:50:10.440Z,20.33
2022-11-04T12:53:00.043Z,21.75
2022-11-04T12:55:34.910Z,21.17
2022-11-04T12:58:14.912Z,30.75
2022-11-04T13:00:44.140Z,24.70
2022-11-04T13:03:14.951Z,23.15
2022-11-04T13:05:45.813Z,21.50
2022-11-04T13:08:21.503Z,23.45
2022-11-04T13:10:53.890Z,21.55
2022-11-04T13:13:24.411Z,28.17
2022-11-04T13:15:57.751Z,24.00
2022-11-04T13:18:27.384Z,21.83
2022-11-04T13:21:02.649Z,21.58
2022-11-04T13:23:37.035Z,25.88
2022-11-04T13:28:32.605Z,25.05
2022-11-04T13:31:05.741Z,31.42
2022-11-04T13:33:39.509Z,27.27
2022-11-04T13:36:16.175Z,23.92
2022-11-04T13:38:45.621Z,26.95
2022-11-04T13:41:29.980Z,23.05
2022-11-04T13:43:58.701Z,24.55
2022-11-04T13:46:30.685Z,25.13
2022-11-04T13:49:02.215Z,22.35
2022-11-04T13:51:39.371Z,31.60
2022-11-04T13:54:07.639Z,26.00
2022-11-04T13:56:37.559Z,27.83
2022-11-04T13:59:18.128Z,26.55
2022-11-04T14:01:47.265Z,28.70
2022-11-04T14:04:28.527Z,27.30
2022-11-04T14:06:58.667Z,23.67
2022-11-04T14:09:40.374Z,28.75
2022-11-04T14:12:27.732Z,25.15
2022-11-04T14:14:56.374Z,23.00
2022-11-04T14:18:13.072Z,31.40
2022-11-04T14:21:05.551Z,26.27
2022-11-04T14:23:33.816Z,27.30
2022-11-04T14:26:02.550Z,23.30
2022-11-04T14:28:30.957Z,20.25
2022-11-04T14:31:00.396Z,22.88
2022-11-04T14:33:40.517Z,21.52
2022-11-04T14:36:30.330Z,22.30
2022-11-04T14:39:00.530Z,20.58
2022-11-04T14:41:49.502Z,23.90
2022-11-04T14:44:21.380Z,24.05
2022-11-04T14:46:50.307Z,21.73
2022-11-04T14:49:33.715Z,21.35
2022-11-04T14:52:01.106Z,25.50
2022-11-04T14:54:32.383Z,23.33
2022-11-04T14:57:10.508Z,25.83
2022-11-04T14:59:37.905Z,23.95
2022-11-04T15:02:05.520Z,25.42
2022-11-04T15:04:34.376Z,22.20
2022-11-04T15:07:04.332Z,25.27
2022-11-04T15:09:34.472Z,27.15
2022-11-04T15:12:27.920Z,24.63
2022-11-04T15:14:55.357Z,23.83
2022-11-04T15:17:24.398Z,25.05
2022-11-04T15:19:55.985Z,24.45
2022-11-04T15:22:23.668Z,25.10
2022-11-04T15:24:51.581Z,22.50
2022-11-04T15:27:21.696Z,26.90
2022-11-04T15:29:55.197Z,23.65
2022-11-04T15:32:22.688Z,22.38
2022-11-04T15:34:50.629Z,26.65
2022-11-04T15:37:19.825Z,33.13
2022-11-04T15:39:49.326Z,29.98
2022-11-04T15:42:42.896Z,33.42
2022-11-04T15:45:32.917Z,21.47
2022-11-04T15:48:23.462Z,30.77
2022-11-04T15:50:54.271Z,28.23
2022-11-04T15:53:23.029Z,29.13
2022-11-04T15:55:50.463Z,27.30
2022-11-04T15:58:17.904Z,27.30
2022-11-04T16:00:53.252Z,25.17
2022-11-04T16:03:22.575Z,26.63
2022-11-04T16:06:02.320Z,29.10
2022-11-04T16:08:32.284Z,27.98
2022-11-04T16:11:11.788Z,27.65
2022-11-04T16:13:39.447Z,27.23
2022-11-04T16:16:09.979Z,23.20
2022-11-04T16:18:39.101Z,26.60
2022-11-04T16:21:10.616Z,27.73
2022-11-04T16:23:44.702Z,24.15
2022-11-04T16:26:12.375Z,23.65
2022-11-04T16:28:40.970Z,26.27
2022-11-04T16:31:18.246Z,30.40
2022-11-04T16:33:45.615Z,25.63
2022-11-04T16:36:13.679Z,26.75
2022-11-04T16:38:42.383Z,26.10
2022-11-04T16:41:09.809Z,25.08
2022-11-04T16:43:41.909Z,25.60
2022-11-04T16:46:09.287Z,26.83
2022-11-04T16:48:36.678Z,26.52
2022-11-04T16:51:04.494Z,28.25
2022-11-04T16:53:31.876Z,24.25
2022-11-04T16:56:01.184Z,28.30
2022-11-04T16:58:29.733Z,26.98
2022-11-04T17:01:02.429Z,31.23
2022-11-04T17:03:32.865Z,24.15
2022-11-04T17:06:00.281Z,24.48
2022-11-04T17:08:28.109Z,24.25
2022-11-04T17:10:55.561Z,25.50
2022-11-04T17:13:24.286Z,29.05
2022-11-04T17:15:51.809Z,26.75
2022-11-04T17:18:19.361Z,25.55
2022-11-04T17:20:50.836Z,26.83
2022-11-04T17:23:18.960Z,25.08
2022-11-04T17:25:46.997Z,30.15
2022-11-04T17:28:14.760Z,26.45
2022-11-04T17:30:44.193Z,26.25
2022-11-04T17:33:13.736Z,27.67
2022-11-04T17:35:42.522Z,22.42
2022-11-04T17:38:11.148Z,26.42
2022-11-04T17:40:59.482Z,28.02
2022-11-04T17:43:45.194Z,30.95
2022-11-04T17:46:32.048Z,26.23
2022-11-04T17:48:59.651Z,23.95
2022-11-04T17:51:27.263Z,27.02
2022-11-04T17:53:54.670Z,23.17
2022-11-04T17:56:23.489Z,24.67
2022-11-04T17:58:50.915Z,24.55
2022-11-04T18:01:21.768Z,24.92
2022-11-04T18:03:49.415Z,29.95
2022-11-04T18:06:16.821Z,24.65
2022-11-04T18:08:44.263Z,27.48
2022-11-04T18:11:12.319Z,30.30
2022-11-04T18:13:38.772Z,24.98
2022-11-04T18:16:10.589Z,36.80
2022-11-04T18:18:39.477Z,30.45
2022-11-04T18:21:08.781Z,26.60
2022-11-04T18:23:36.174Z,28.13
2022-11-04T18:26:03.765Z,29.20
2022-11-04T18:28:31.629Z,30.35
2022-11-04T18:30:59.319Z,28.33
2022-11-04T18:33:26.775Z,25.92
2022-11-04T18:35:55.514Z,30.25
2022-11-04T18:38:22.940Z,29.02
2022-11-04T18:40:50.376Z,28.55
2022-11-04T18:43:17.850Z,30.33
2022-11-04T18:45:45.281Z,26.58
2022-11-04T18:48:12.883Z,34.22
2022-11-04T18:50:40.481Z,29.08
2022-11-04T18:53:11.188Z,32.28
2022-11-04T18:55:38.828Z,30.23
2022-11-04T18:58:06.381Z,31.65
2022-11-04T19:00:34.003Z,33.03
2022-11-04T19:03:02.079Z,31.58
2022-11-04T19:05:29.752Z,34.38
2022-11-04T19:07:57.241Z,37.05
2022-11-04T19:10:26.024Z,32.17
2022-11-04T19:13:11.040Z,35.30
2022-11-04T19:15:38.484Z,31.55
2022-11-04T19:18:05.950Z,31.08
2022-11-04T19:20:33.454Z,35.83
2022-11-04T19:23:00.985Z,30.95
2022-11-04T19:25:30.161Z,40.25
2022-11-04T19:28:31.501Z,31.80
2022-11-04T19:30:58.128Z,32.88
2022-11-04T19:33:25.626Z,31.75
2022-11-04T19:35:53.763Z,29.65
2022-11-04T19:38:24.320Z,31.60
2022-11-04T19:40:53.605Z,31.33
2022-11-04T19:43:21.039Z,36.38
2022-11-04T19:45:49.545Z,34.78
2022-11-04T19:48:18.472Z,37.78
2022-11-04T19:50:48.050Z,41.90
2022-11-04T19:53:16.016Z,36.28
2022-11-04T19:55:49.168Z,38.10
2022-11-04T19:58:19.072Z,40.65
2022-11-04T20:00:47.279Z,43.55
2022-11-04T20:03:15.176Z,40.50
2022-11-04T20:05:44.999Z,35.85
2022-11-04T20:08:13.029Z,42.75
2022-11-04T20:10:42.823Z,40.00
2022-11-04T20:13:44.390Z,40.47
2022-11-04T20:16:18.934Z,41.53
2022-11-04T20:18:48.075Z,41.30
2022-11-04T20:21:15.943Z,45.88
2022-11-04T20:23:44.050Z,42.20
2022-11-04T20:26:19.209Z,47.78
2022-11-04T20:28:48.538Z,43.63
2022-11-04T20:31:19.203Z,45.35
2022-11-04T20:33:47.183Z,45.05
2022-11-04T20:36:16.968Z,42.13
2022-11-04T20:38:44.377Z,45.45
2022-11-04T20:41:15.391Z,48.05
2022-11-04T20:43:42.774Z,45.30
2022-11-04T20:46:13.113Z,42.22
2022-11-04T20:48:41.849Z,42.95
2022-11-04T20:51:10.396Z,37.90
2022-11-04T20:53:38.192Z,42.95
2022-11-04T20:56:06.908Z,44.13
2022-11-04T20:58:34.902Z,47.35
2022-11-04T21:01:03.584Z,47.72
2022-11-04T21:03:31.339Z,41.83
2022-11-04T21:06:00.149Z,46.13
2022-11-04T21:08:27.697Z,40.85
2022-11-04T21:10:56.721Z,41.03
2022-11-04T21:13:24.212Z,40.22
2022-11-04T21:15:52.330Z,40.60
2022-11-04T21:18:19.829Z,42.08
2022-11-04T21:20:47.574Z,41.72
2022-11-04T21:23:17.545Z,42.53
2022-11-04T21:25:46.436Z,40.25
2022-11-04T21:28:14.460Z,35.45
2022-11-04T21:30:44.686Z,38.22
2022-11-04T21:33:12.638Z,40.03
2022-11-04T21:35:41.062Z,38.97
2022-11-04T21:38:10.316Z,41.22
2022-11-04T21:40:39.179Z,41.60
2022-11-04T21:43:06.601Z,39.97
2022-11-04T21:45:34.957Z,33.88
2022-11-04T21:48:02.778Z,39.47
2022-11-04T21:50:30.305Z,39.90
2022-11-04T21:52:58.517Z,36.20
2022-11-04T21:55:26.108Z,35.92
2022-11-04T21:57:54.838Z,36.20
2022-11-04T22:00:22.492Z,39.25
2022-11-04T22:02:51.552Z,37.40
2022-11-04T22:05:19.270Z,36.83
2022-11-04T22:08:04.477Z,40.92
2022-11-04T22:10:31.932Z,37.70
2022-11-04T22:13:00.646Z,34.45
2022-11-04T22:15:45.564Z,34.92
2022-11-04T22:18:13.016Z,36.13
2022-11-04T22:20:40.477Z,35.60
2022-11-04T22:23:08.353Z,36.78
2022-11-04T22:25:35.988Z,40.72
2022-11-04T22:28:04.994Z,38.85
2022-11-04T22:30:32.494Z,38.63
2022-11-04T22:33:00.040Z,39.65
2022-11-04T22:35:27.463Z,37.88
2022-11-04T22:37:54.878Z,37.58
2022-11-04T22:40:22.293Z,38.90
2022-11-04T22:42:49.788Z,43.55
2022-11-04T22:45:18.857Z,36.90
2022-11-04T22:47:47.738Z,38.92
2022-11-04T22:50:18.527Z,37.35
2022-11-04T22:52:46.514Z,37.72
2022-11-04T22:55:15.594Z,37.47
2022-11-04T22:57:43.452Z,32.00
2022-11-04T23:00:12.883Z,38.17
2022-11-04T23:02:42.277Z,31.95
2022-11-04T23:05:11.578Z,36.33
2022-11-04T23:07:46.273Z,37.00
2022-11-04T23:10:31.644Z,34.05
2022-11-04T23:13:17.590Z,34.15
2022-11-04T23:16:02.510Z,32.35
2022-11-04T23:18:43.570Z,36.28
2022-11-04T23:21:30.093Z,32.90
2022-11-04T23:24:15.370Z,30.40
2022-11-04T23:26:45.354Z,35.65
2022-11-04T23:29:30.518Z,28.85
2022-11-04T23:31:58.022Z,32.83
2022-11-04T23:34:44.689Z,33.67
2022-11-04T23:37:16.468Z,32.75
2022-11-04T23:45:34.070Z,32.95
2022-11-04T23:48:20.684Z,34.72
2022-11-04T23:54:12.267Z,35.13
2022-11-04T23:56:57.278Z,36.35
2022-11-04T23:59:42.086Z,34.10
